createdAt,value
2024-05-09T00:03:48.145Z,10.70
2024-05-09T00:08:57.271Z,10.80
2024-05-09T00:13:50.660Z,10.90
2024-05-09T00:18:13.700Z,11.00
2024-05-09T00:22:37.121Z,11.10
2024-05-09T00:26:56.227Z,11.20
2024-05-09T00:31:32.333Z,11.30
2024-05-09T00:35:56.857Z,11.40
2024-05-09T00:40:26.561Z,11.40
2024-05-09T00:44:51.863Z,11.40
2024-05-09T00:49:16.030Z,11.50
2024-05-09T00:53:38.253Z,11.50
2024-05-09T00:57:58.131Z,11.50
2024-05-09T01:02:22.472Z,11.50
2024-05-09T01:06:46.267Z,11.40
2024-05-09T01:12:07.087Z,11.40
2024-05-09T01:16:27.163Z,11.20
2024-05-09T01:20:51.112Z,11.10
2024-05-09T01:25:15.820Z,11.00
2024-05-09T01:29:37.452Z,10.80
2024-05-09T01:34:00.899Z,10.80
2024-05-09T01:38:22.081Z,10.60
2024-05-09T01:42:47.559Z,10.50
2024-05-09T01:47:07.380Z,10.40
2024-05-09T01:51:29.313Z,10.40
2024-05-09T01:55:49.532Z,10.30
2024-05-09T02:00:22.103Z,10.40
2024-05-09T02:04:50.522Z,10.40
2024-05-09T02:09:11.970Z,10.40
2024-05-09T02:13:33.336Z,10.40
2024-05-09T02:17:57.088Z,10.50
2024-05-09T02:22:18.381Z,10.50
2024-05-09T02:26:39.454Z,10.60
2024-05-09T02:31:00.691Z,10.60
2024-05-09T02:35:29.171Z,10.50
2024-05-09T02:39:49.175Z,10.40
2024-05-09T02:44:12.147Z,10.40
2024-05-09T02:48:34.438Z,10.30
2024-05-09T02:52:59.638Z,10.30
2024-05-09T02:57:20.737Z,10.40
2024-05-09T03:01:40.752Z,10.40
2024-05-09T03:06:01.763Z,10.40
2024-05-09T03:10:28.949Z,10.40
2024-05-09T03:14:56.477Z,10.50
2024-05-09T03:19:17.678Z,10.50
2024-05-09T03:23:42.314Z,10.50
2024-05-09T03:28:07.699Z,10.50
2024-05-09T03:32:27.110Z,10.60
2024-05-09T03:36:55.791Z,10.60
2024-05-09T03:41:18.464Z,10.60
2024-05-09T03:45:45.597Z,10.60
2024-05-09T03:50:15.168Z,10.60
2024-05-09T03:54:47.948Z,10.60
2024-05-09T03:59:10.021Z,10.60
2024-05-09T04:03:31.428Z,10.60
2024-05-09T04:08:00.175Z,10.50
2024-05-09T04:12:26.290Z,10.50
2024-05-09T04:16:48.311Z,10.40
2024-05-09T04:21:11.390Z,10.40
2024-05-09T04:25:33.784Z,10.40
2024-05-09T04:29:54.755Z,10.50
2024-05-09T04:34:15.148Z,10.60
2024-05-09T04:38:38.852Z,11.00
2024-05-09T04:43:03.423Z,11.70
2024-05-09T04:47:24.862Z,12.60
2024-05-09T04:51:45.575Z,13.20
2024-05-09T04:56:07.644Z,13.70
2024-05-09T05:00:35.729Z,14.20
2024-05-09T05:04:58.339Z,14.70
2024-05-09T05:09:19.297Z,15.20
2024-05-09T05:13:44.007Z,15.90
2024-05-09T05:18:04.975Z,16.60
2024-05-09T05:22:25.803Z,16.90
2024-05-09T05:26:46.832Z,17.00
2024-05-09T05:31:11.345Z,17.30
2024-05-09T05:35:32.530Z,18.10
2024-05-09T05:39:53.357Z,18.80
2024-05-09T05:44:15.957Z,19.60
2024-05-09T05:48:38.331Z,20.10
2024-05-09T05:52:59.840Z,20.10
2024-05-09T05:57:20.976Z,19.90
2024-05-09T06:01:42.049Z,19.70
2024-05-09T06:06:06.867Z,19.50
2024-05-09T06:10:37.012Z,19.40
2024-05-09T06:15:00.896Z,19.30
2024-05-09T06:19:22.518Z,19.60
2024-05-09T06:23:53.335Z,20.50
2024-05-09T06:28:13.390Z,21.80
2024-05-09T06:32:35.095Z,22.90
2024-05-09T06:36:55.634Z,23.80
2024-05-09T06:41:19.455Z,24.80
2024-05-09T06:45:41.146Z,26.00
2024-05-09T06:50:02.621Z,27.10
2024-05-09T06:54:23.132Z,28.20
2024-05-09T06:58:47.072Z,29.10
2024-05-09T07:03:12.469Z,29.80
2024-05-09T07:07:32.653Z,30.40
2024-05-09T07:11:54.220Z,30.90
2024-05-09T07:16:17.723Z,31.40
2024-05-09T07:20:39.323Z,31.90
2024-05-09T07:25:00.511Z,32.30
2024-05-09T07:29:23.011Z,32.70
2024-05-09T07:33:48.563Z,33.10
2024-05-09T07:38:09.863Z,33.40
2024-05-09T07:42:30.979Z,33.50
2024-05-09T07:55:47.085Z,34.30
2024-05-09T08:00:11.710Z,34.50
2024-05-09T08:04:35.083Z,34.80
2024-05-09T08:09:02.771Z,35.00
2024-05-09T08:13:26.631Z,34.90
2024-05-09T08:17:47.587Z,34.90
2024-05-09T08:22:09.435Z,34.90
2024-05-09T08:26:32.480Z,34.70
2024-05-09T08:30:54.240Z,34.60
2024-05-09T08:35:15.214Z,34.80
2024-05-09T08:39:36.404Z,35.00
2024-05-09T08:44:00.135Z,35.40
2024-05-09T08:48:26.044Z,35.50
2024-05-09T08:52:46.027Z,35.70
2024-05-09T08:57:09.415Z,35.90
2024-05-09T09:01:34.172Z,35.80
2024-05-09T09:06:04.642Z,34.80
2024-05-09T09:10:31.787Z,34.10
2024-05-09T09:14:52.201Z,33.50
2024-05-09T09:19:16.729Z,32.60
2024-05-09T09:23:37.570Z,32.50
2024-05-09T09:27:58.815Z,32.80
2024-05-09T09:32:22.751Z,33.10
2024-05-09T09:36:47.448Z,33.00
2024-05-09T09:41:11.331Z,33.00
2024-05-09T09:45:33.738Z,33.60
2024-05-09T09:49:55.031Z,34.40
2024-05-09T09:54:21.270Z,35.10
2024-05-09T09:58:43.213Z,35.80
2024-05-09T10:03:03.143Z,36.20
2024-05-09T10:07:27.587Z,35.50
2024-05-09T10:11:52.400Z,34.30
2024-05-09T10:16:15.483Z,33.50
2024-05-09T10:20:46.536Z,33.30
2024-05-09T10:25:08.648Z,33.30
2024-05-09T10:29:30.914Z,33.40
2024-05-09T10:33:54.846Z,33.10
2024-05-09T10:38:15.511Z,32.20
2024-05-09T10:42:36.240Z,31.10
2024-05-09T10:46:58.571Z,30.10
2024-05-09T10:51:21.657Z,29.80
2024-05-09T10:55:41.096Z,30.40
2024-05-09T11:00:06.342Z,31.40
2024-05-09T11:04:32.494Z,32.50
2024-05-09T11:08:54.407Z,32.30
2024-05-09T11:13:15.023Z,31.50
2024-05-09T11:17:40.202Z,30.70
2024-05-09T11:22:03.491Z,29.80
2024-05-09T11:26:25.489Z,28.90
2024-05-09T11:30:45.805Z,28.00
2024-05-09T11:35:06.880Z,27.20
2024-05-09T11:39:30.551Z,26.50
2024-05-09T11:43:52.155Z,26.30
2024-05-09T11:48:13.175Z,26.50
2024-05-09T11:52:34.298Z,27.00
2024-05-09T11:56:58.023Z,27.30
2024-05-09T12:01:20.118Z,27.20
2024-05-09T12:05:40.888Z,26.80
2024-05-09T12:10:02.013Z,26.20
2024-05-09T12:14:25.872Z,25.60
2024-05-09T12:18:47.357Z,25.20
2024-05-09T12:23:09.964Z,24.90
2024-05-09T12:27:29.389Z,24.50
2024-05-09T12:31:53.354Z,24.20
2024-05-09T12:36:14.791Z,23.90
2024-05-09T12:40:38.625Z,23.60
2024-05-09T12:45:00.184Z,23.20
2024-05-09T12:49:25.689Z,22.90
2024-05-09T12:53:45.473Z,22.80
2024-05-09T12:58:09.465Z,22.60
2024-05-09T13:02:30.796Z,22.50
2024-05-09T13:06:54.654Z,22.40
2024-05-09T13:11:16.097Z,22.40
2024-05-09T13:15:37.565Z,22.30
2024-05-09T13:19:58.473Z,22.30
2024-05-09T13:24:21.987Z,22.10
2024-05-09T13:28:44.239Z,22.00
2024-05-09T13:33:08.735Z,22.00
2024-05-09T13:37:28.799Z,22.00
2024-05-09T13:41:52.622Z,22.00
2024-05-09T13:46:14.191Z,21.90
2024-05-09T13:50:36.815Z,21.90
2024-05-09T13:54:56.803Z,21.90
2024-05-09T13:59:20.419Z,21.90
2024-05-09T14:03:43.137Z,21.90
2024-05-09T14:08:02.972Z,21.80
2024-05-09T14:12:24.167Z,21.70
2024-05-09T14:16:47.885Z,21.70
2024-05-09T14:21:09.524Z,21.60
2024-05-09T14:25:31.937Z,21.60
2024-05-09T14:29:51.816Z,21.50
2024-05-09T14:34:15.691Z,21.40
2024-05-09T14:38:37.078Z,21.40
2024-05-09T14:43:47.963Z,21.30
2024-05-09T14:48:09.948Z,21.20
2024-05-09T14:52:32.146Z,21.20
2024-05-09T14:56:54.993Z,21.20
2024-05-09T15:01:14.895Z,21.20
2024-05-09T15:05:36.258Z,21.20
2024-05-09T15:09:59.576Z,21.10
2024-05-09T15:14:18.420Z,21.10
2024-05-09T15:18:41.371Z,21.10
2024-05-09T15:23:03.946Z,21.10
2024-05-09T15:27:27.364Z,21.10
2024-05-09T15:31:48.859Z,21.00
2024-05-09T15:36:11.032Z,21.00
2024-05-09T15:40:36.202Z,21.00
2024-05-09T15:45:03.988Z,21.00
2024-05-09T15:49:25.890Z,21.00
2024-05-09T15:53:46.755Z,20.90
2024-05-09T15:58:11.301Z,20.90
2024-05-09T16:02:34.960Z,20.90
2024-05-09T16:06:56.529Z,20.80
2024-05-09T16:11:19.582Z,20.90
2024-05-09T16:15:41.703Z,20.80
2024-05-09T16:20:09.347Z,20.90
2024-05-09T16:24:36.240Z,20.90
2024-05-09T16:28:57.409Z,20.90
2024-05-09T16:33:19.424Z,20.90
2024-05-09T16:37:42.550Z,20.80
2024-05-09T16:42:07.326Z,20.70
2024-05-09T16:46:28.340Z,20.70
2024-05-09T16:50:46.573Z,20.60
2024-05-09T16:55:10.059Z,20.60
2024-05-09T16:59:31.291Z,20.60
2024-05-09T17:03:52.841Z,20.60
2024-05-09T17:08:13.736Z,20.50
2024-05-09T17:12:37.291Z,20.40
2024-05-09T17:16:59.121Z,20.40
2024-05-09T17:21:20.134Z,20.30
2024-05-09T17:25:38.623Z,20.20
2024-05-09T17:30:01.831Z,20.10
2024-05-09T17:34:23.381Z,20.00
2024-05-09T17:38:44.577Z,19.90
2024-05-09T17:43:07.657Z,19.80
2024-05-09T17:47:37.620Z,19.60
2024-05-09T17:51:57.406Z,19.50
2024-05-09T17:56:18.438Z,19.40
2024-05-09T18:00:42.807Z,19.40
2024-05-09T18:05:06.309Z,19.30
2024-05-09T18:09:27.790Z,19.20
2024-05-09T18:13:49.145Z,19.00
2024-05-09T18:18:11.090Z,18.90
2024-05-09T18:22:40.650Z,18.70
2024-05-09T18:27:02.770Z,18.50
2024-05-09T18:31:26.034Z,18.40
2024-05-09T18:35:48.753Z,18.30
2024-05-09T18:40:21.131Z,18.00
2024-05-09T18:44:47.510Z,17.90
2024-05-09T18:49:09.525Z,17.70
2024-05-09T18:53:29.769Z,17.50
2024-05-09T18:57:54.145Z,17.40
2024-05-09T19:02:15.847Z,17.30
2024-05-09T19:06:36.707Z,17.10
2024-05-09T19:10:57.521Z,17.00
2024-05-09T19:15:21.521Z,16.90
2024-05-09T19:19:43.059Z,16.70
2024-05-09T19:24:04.013Z,16.70
2024-05-09T19:28:25.184Z,16.50
2024-05-09T19:32:48.580Z,16.50
2024-05-09T19:37:10.631Z,16.40
2024-05-09T19:41:31.311Z,16.30
2024-05-09T19:45:54.464Z,16.20
2024-05-09T19:50:26.644Z,16.20
2024-05-09T19:54:54.067Z,16.10
2024-05-09T19:59:15.410Z,16.00
2024-05-09T20:03:37.224Z,15.90
2024-05-09T20:08:00.382Z,15.70
2024-05-09T20:12:21.645Z,15.70
2024-05-09T20:16:42.545Z,15.60
2024-05-09T20:21:04.697Z,15.50
2024-05-09T20:25:27.569Z,15.40
2024-05-09T20:29:49.097Z,15.40
2024-05-09T20:34:10.132Z,15.30
2024-05-09T20:38:31.289Z,15.20
2024-05-09T20:42:55.220Z,15.20
2024-05-09T20:47:16.617Z,15.10
2024-05-09T20:51:37.918Z,15.00
2024-05-09T20:55:58.941Z,14.90
2024-05-09T21:00:30.008Z,14.90
2024-05-09T21:04:56.601Z,14.80
2024-05-09T21:09:17.607Z,14.80
2024-05-09T21:13:38.944Z,14.70
2024-05-09T21:18:02.589Z,14.60
2024-05-09T21:22:24.124Z,14.60
2024-05-09T21:26:45.283Z,14.50
2024-05-09T21:31:15.671Z,14.50
2024-05-09T21:35:39.523Z,14.40
2024-05-09T21:40:01.104Z,14.40
2024-05-09T21:44:22.081Z,14.40
2024-05-09T21:48:43.179Z,14.30
2024-05-09T21:53:07.346Z,14.30
2024-05-09T21:57:28.436Z,14.20
2024-05-09T22:01:49.762Z,14.10
2024-05-09T22:06:11.233Z,14.00
2024-05-09T22:10:36.459Z,14.00
2024-05-09T22:14:56.105Z,13.90
2024-05-09T22:19:17.215Z,13.80
2024-05-09T22:23:38.274Z,13.70
2024-05-09T22:28:02.699Z,13.70
2024-05-09T22:32:23.558Z,13.60
2024-05-09T22:36:44.713Z,13.50
2024-05-09T22:41:09.374Z,13.40
2024-05-09T22:45:32.890Z,13.40
2024-05-09T22:49:54.316Z,13.30
2024-05-09T22:54:15.409Z,13.30
2024-05-09T22:58:36.530Z,13.20
2024-05-09T23:03:00.339Z,13.10
2024-05-09T23:07:21.957Z,13.00
2024-05-09T23:11:45.782Z,12.90
2024-05-09T23:16:07.597Z,12.80
2024-05-09T23:20:37.142Z,12.80
2024-05-09T23:24:58.734Z,12.70
2024-05-09T23:29:19.710Z,12.60
2024-05-09T23:33:48.024Z,12.50
2024-05-09T23:38:10.859Z,12.50
2024-05-09T23:42:32.602Z,12.50
2024-05-09T23:46:53.521Z,12.50
2024-05-09T23:51:14.644Z,12.60
2024-05-09T23:55:38.470Z,12.60
